createdAt,value
2019-01-05T00:01:58.759Z,63.33
2019-01-05T00:04:42.649Z,59.30
2019-01-05T00:07:41.469Z,63.70
2019-01-05T00:10:27.873Z,67.87
2019-01-05T00:13:18.182Z,61.17
2019-01-05T00:16:21.650Z,71.70
2019-01-05T00:19:27.354Z,57.07
2019-01-05T00:22:16.107Z,65.10
2019-01-05T00:25:02.705Z,68.40
2019-01-05T00:27:59.715Z,65.93
2019-01-05T00:30:48.806Z,69.37
2019-01-05T00:33:52.539Z,64.60
2019-01-05T00:36:54.023Z,66.13
2019-01-05T00:39:45.907Z,72.57
2019-01-05T00:42:34.534Z,64.10
2019-01-05T00:45:16.549Z,69.40
2019-01-05T00:48:18.314Z,70.87
2019-01-05T00:51:10.193Z,62.20
2019-01-05T00:54:03.697Z,65.17
2019-01-05T00:56:54.870Z,69.80
2019-01-05T00:59:55.806Z,68.43
2019-01-05T01:02:56.281Z,74.67
2019-01-05T01:05:42.731Z,67.23
2019-01-05T01:08:29.938Z,74.43
2019-01-05T01:11:24.138Z,75.87
2019-01-05T01:14:10.490Z,73.57
2019-01-05T01:17:07.720Z,66.57
2019-01-05T01:19:58.570Z,69.07
2019-01-05T01:22:58.922Z,69.40
2019-01-05T01:25:45.355Z,77.37
2019-01-05T01:28:32.698Z,68.73
2019-01-05T01:31:13.634Z,71.53
2019-01-05T01:33:56.670Z,67.57
2019-01-05T01:36:44.825Z,66.93
2019-01-05T01:39:39.017Z,64.53
2019-01-05T01:42:28.189Z,72.33
2019-01-05T01:45:34.787Z,71.03
2019-01-05T01:48:26.881Z,71.97
2019-01-05T01:51:13.741Z,67.37
2019-01-05T01:54:11.586Z,68.93
2019-01-05T01:57:00.115Z,68.93
2019-01-05T01:59:55.051Z,66.57
2019-01-05T02:03:05.852Z,64.00
2019-01-05T02:05:54.997Z,66.23
2019-01-05T02:08:48.005Z,58.40
2019-01-05T02:11:43.647Z,59.40
2019-01-05T02:14:35.710Z,71.13
2019-01-05T02:17:29.864Z,63.00
2019-01-05T02:20:37.943Z,62.67
2019-01-05T02:23:56.533Z,57.83
2019-01-05T02:27:19.125Z,58.67
2019-01-05T02:30:44.014Z,54.03
2019-01-05T02:34:00.554Z,49.37
2019-01-05T02:37:29.082Z,46.80
2019-01-05T02:40:49.811Z,44.63
2019-01-05T02:44:13.653Z,44.03
2019-01-05T02:47:33.315Z,43.03
2019-01-05T02:50:48.744Z,35.20
2019-01-05T02:54:48.043Z,37.87
2019-01-05T02:58:20.426Z,36.50
2019-01-05T03:02:03.137Z,33.73
2019-01-05T03:05:35.164Z,45.40
2019-01-05T03:08:53.032Z,41.33
2019-01-05T03:12:04.970Z,42.00
2019-01-05T03:15:28.655Z,36.27
2019-01-05T03:18:59.992Z,36.87
2019-01-05T03:22:43.395Z,33.10
2019-01-05T03:26:19.706Z,30.90
2019-01-05T03:29:45.782Z,29.50
2019-01-05T03:33:16.197Z,30.23
2019-01-05T03:36:29.551Z,29.57
2019-01-05T03:40:01.635Z,32.70
2019-01-05T03:43:35.386Z,27.53
2019-01-05T03:47:01.778Z,25.43
2019-01-05T03:50:49.391Z,30.70
2019-01-05T03:54:29.065Z,29.13
2019-01-05T03:57:40.596Z,28.00
2019-01-05T04:01:03.886Z,28.47
2019-01-05T04:04:33.330Z,24.63
2019-01-05T04:07:45.458Z,27.47
2019-01-05T04:11:12.181Z,25.00
2019-01-05T04:14:45.055Z,24.17
2019-01-05T04:18:21.361Z,23.13
2019-01-05T04:21:42.382Z,26.20
2019-01-05T04:25:05.396Z,20.97
2019-01-05T04:28:17.989Z,22.70
2019-01-05T04:32:09.726Z,24.03
2019-01-05T04:35:43.731Z,21.97
2019-01-05T04:39:11.486Z,19.20
2019-01-05T04:42:49.970Z,18.93
2019-01-05T04:46:06.886Z,21.37
2019-01-05T04:49:58.537Z,25.73
2019-01-05T04:53:18.433Z,16.83
2019-01-05T04:56:55.863Z,20.80
2019-01-05T05:00:38.709Z,15.47
2019-01-05T05:04:04.930Z,18.93
2019-01-05T05:07:31.922Z,16.63
2019-01-05T05:11:11.775Z,16.63
2019-01-05T05:14:35.174Z,18.80
2019-01-05T05:17:50.049Z,16.30
2019-01-05T05:21:28.244Z,14.93
2019-01-05T05:24:59.396Z,15.30
2019-01-05T05:28:30.024Z,12.40
2019-01-05T05:32:25.977Z,18.37
2019-01-05T05:35:28.647Z,13.13
2019-01-05T05:39:16.198Z,13.30
2019-01-05T05:42:53.679Z,11.77
2019-01-05T05:46:29.259Z,16.83
2019-01-05T05:50:02.962Z,19.80
2019-01-05T05:53:29.119Z,12.77
2019-01-05T05:57:14.097Z,14.63
2019-01-05T06:01:16.142Z,13.27
2019-01-05T06:04:37.814Z,13.40
2019-01-05T06:07:52.564Z,13.80
2019-01-05T06:11:22.357Z,12.90
2019-01-05T06:14:50.552Z,11.17
2019-01-05T06:18:27.399Z,11.60
2019-01-05T06:21:39.495Z,12.07
2019-01-05T06:24:52.490Z,10.27
2019-01-05T06:28:18.724Z,12.30
2019-01-05T06:31:55.141Z,12.30
2019-01-05T06:35:20.959Z,12.93
2019-01-05T06:39:15.650Z,12.13
2019-01-05T06:42:50.410Z,18.60
2019-01-05T06:46:28.105Z,12.57
2019-01-05T06:50:09.903Z,13.43
2019-01-05T06:53:26.926Z,15.50
2019-01-05T06:57:08.884Z,15.43
2019-01-05T07:00:24.038Z,19.33
2019-01-05T07:03:43.732Z,16.90
2019-01-05T07:07:30.722Z,19.00
2019-01-05T07:10:55.791Z,16.73
2019-01-05T07:14:32.231Z,17.93
2019-01-05T07:18:03.628Z,17.43
2019-01-05T07:21:22.646Z,18.27
2019-01-05T07:24:49.453Z,18.93
2019-01-05T07:28:02.541Z,16.47
2019-01-05T07:31:31.629Z,16.83
2019-01-05T07:34:54.659Z,15.43
2019-01-05T07:38:19.735Z,14.90
2019-01-05T07:41:47.553Z,17.07
2019-01-05T07:45:15.378Z,16.30
2019-01-05T07:48:50.899Z,15.47
2019-01-05T07:52:13.303Z,14.97
2019-01-05T07:55:45.932Z,13.47
2019-01-05T07:59:20.321Z,8.97
2019-01-05T08:02:47.417Z,8.93
2019-01-05T08:06:10.686Z,10.53
2019-01-05T08:09:38.902Z,8.67
2019-01-05T08:13:19.865Z,9.73
2019-01-05T08:16:43.787Z,6.10
2019-01-05T08:20:04.940Z,6.70
2019-01-05T08:23:34.570Z,7.13
2019-01-05T08:26:57.904Z,7.20
2019-01-05T08:30:54.990Z,4.17
2019-01-05T08:34:28.862Z,6.43
2019-01-05T08:37:50.303Z,6.60
2019-01-05T08:41:21.203Z,8.83
2019-01-05T08:44:43.827Z,8.03
2019-01-05T08:48:13.551Z,6.97
2019-01-05T08:51:33.838Z,7.57
2019-01-05T08:54:45.881Z,6.17
2019-01-05T08:58:16.605Z,12.03
2019-01-05T09:01:43.653Z,7.40
2019-01-05T09:05:13.424Z,5.13
2019-01-05T09:08:59.054Z,10.63
2019-01-05T09:12:30.909Z,6.97
2019-01-05T09:16:08.361Z,8.83
2019-01-05T09:19:23.501Z,8.17
2019-01-05T09:22:47.280Z,7.20
2019-01-05T09:26:06.995Z,6.33
2019-01-05T09:29:34.035Z,10.27
2019-01-05T09:33:12.654Z,11.57
2019-01-05T09:37:01.073Z,11.93
2019-01-05T09:40:24.524Z,7.93
2019-01-05T09:43:42.055Z,7.97
2019-01-05T09:47:17.846Z,8.27
2019-01-05T09:50:44.191Z,5.70
2019-01-05T09:54:25.686Z,9.67
2019-01-05T09:58:24.767Z,7.13
2019-01-05T10:01:49.609Z,10.57
2019-01-05T10:04:55.538Z,11.50
2019-01-05T10:08:12.174Z,7.03
2019-01-05T10:11:55.513Z,8.43
2019-01-05T10:15:33.745Z,8.50
2019-01-05T10:18:58.981Z,12.63
2019-01-05T10:22:42.495Z,7.20
2019-01-05T10:26:13.743Z,8.33
2019-01-05T10:29:25.887Z,7.20
2019-01-05T10:32:52.249Z,6.67
2019-01-05T10:36:10.942Z,7.97
2019-01-05T10:39:49.525Z,5.30
2019-01-05T10:43:24.418Z,8.70
2019-01-05T10:46:49.581Z,9.63
2019-01-05T10:50:21.089Z,6.23
2019-01-05T10:53:47.370Z,3.20
2019-01-05T10:57:36.048Z,6.43
2019-01-05T11:01:37.902Z,4.37
2019-01-05T11:04:57.173Z,10.90
2019-01-05T11:08:43.383Z,2.90
2019-01-05T11:12:12.149Z,8.13
2019-01-05T11:15:39.939Z,6.20
2019-01-05T11:19:15.069Z,3.23
2019-01-05T11:23:04.113Z,3.77
2019-01-05T11:26:43.247Z,6.23
2019-01-05T11:30:32.481Z,5.97
2019-01-05T11:33:58.311Z,6.80
2019-01-05T11:37:32.814Z,8.70
2019-01-05T11:41:01.769Z,9.17
2019-01-05T11:44:53.460Z,8.10
2019-01-05T11:48:20.771Z,14.30
2019-01-05T11:51:48.988Z,8.73
2019-01-05T11:55:24.203Z,4.03
2019-01-05T11:58:42.503Z,5.13
2019-01-05T12:02:08.808Z,9.00
2019-01-05T12:05:35.357Z,9.73
2019-01-05T12:08:56.746Z,4.73
2019-01-05T12:12:51.549Z,13.63
2019-01-05T12:16:06.849Z,14.13
2019-01-05T12:19:55.897Z,5.80
2019-01-05T12:23:39.511Z,6.60
2019-01-05T12:27:08.609Z,7.07
2019-01-05T12:30:46.611Z,3.80
2019-01-05T12:34:09.031Z,8.40
2019-01-05T12:37:24.650Z,7.20
2019-01-05T12:41:12.884Z,11.27
2019-01-05T12:44:40.702Z,8.57
2019-01-05T12:48:11.571Z,6.17
2019-01-05T12:51:38.452Z,6.17
2019-01-05T12:55:23.317Z,7.17
2019-01-05T12:59:03.579Z,6.23
2019-01-05T13:02:35.973Z,6.43
2019-01-05T13:06:08.134Z,7.50
2019-01-05T13:09:30.666Z,8.17
2019-01-05T13:13:22.178Z,10.77
2019-01-05T13:16:25.228Z,7.10
2019-01-05T13:19:48.971Z,7.80
2019-01-05T13:23:36.215Z,6.93
2019-01-05T13:27:14.442Z,8.13
2019-01-05T13:30:35.000Z,9.87
2019-01-05T13:34:22.635Z,11.70
2019-01-05T13:37:50.154Z,13.60
2019-01-05T13:41:25.722Z,7.60
2019-01-05T13:44:49.963Z,7.33
2019-01-05T13:48:45.718Z,15.73
2019-01-05T13:52:20.388Z,8.83
2019-01-05T13:55:09.957Z,10.63
2019-01-05T13:58:01.241Z,9.07
2019-01-05T14:00:42.606Z,10.10
2019-01-05T14:03:42.799Z,10.77
2019-01-05T14:06:29.438Z,9.27
2019-01-05T14:09:17.543Z,11.13
2019-01-05T14:12:16.895Z,8.77
2019-01-05T14:15:10.698Z,10.47
2019-01-05T14:17:58.609Z,10.97
2019-01-05T14:20:54.998Z,9.67
2019-01-05T14:23:48.633Z,8.23
2019-01-05T14:26:39.640Z,6.60
2019-01-05T14:29:42.737Z,9.17
2019-01-05T14:32:33.816Z,10.23
2019-01-05T14:35:20.357Z,8.80
2019-01-05T14:38:11.366Z,8.03
2019-01-05T14:41:14.328Z,6.53
2019-01-05T14:44:20.633Z,9.03
2019-01-05T14:47:23.831Z,11.10
2019-01-05T14:50:08.805Z,12.63
2019-01-05T14:52:51.766Z,10.93
2019-01-05T14:55:38.546Z,14.17
2019-01-05T14:58:25.345Z,11.67
2019-01-05T15:01:12.098Z,11.93
2019-01-05T15:04:00.105Z,12.97
2019-01-05T15:06:57.144Z,10.60
2019-01-05T15:09:51.302Z,8.27
2019-01-05T15:12:45.400Z,9.67
2019-01-05T15:15:43.389Z,10.43
2019-01-05T15:18:29.794Z,21.20
2019-01-05T15:21:26.841Z,11.53
2019-01-05T15:24:14.814Z,14.50
2019-01-05T15:27:01.268Z,13.50
2019-01-05T15:29:55.192Z,11.97
2019-01-05T15:32:41.870Z,9.90
2019-01-05T15:35:39.541Z,13.53
2019-01-05T15:38:26.259Z,13.00
2019-01-05T15:41:20.366Z,9.60
2019-01-05T15:44:07.070Z,17.30
2019-01-05T15:46:59.793Z,11.77
2019-01-05T15:49:46.029Z,10.67
2019-01-05T15:52:32.526Z,10.87
2019-01-05T15:55:27.688Z,12.43
2019-01-05T15:58:15.721Z,13.10
2019-01-05T16:01:03.232Z,12.80
2019-01-05T16:03:49.689Z,15.30
2019-01-05T16:06:49.802Z,15.17
2019-01-05T16:09:39.603Z,10.20
2019-01-05T16:12:37.453Z,11.57
2019-01-05T16:15:28.556Z,12.73
2019-01-05T16:18:23.608Z,11.53
2019-01-05T16:21:14.687Z,14.60
2019-01-05T16:24:03.866Z,18.00
2019-01-05T16:26:50.615Z,22.63
2019-01-05T16:29:44.851Z,16.17
2019-01-05T16:32:50.884Z,21.70
2019-01-05T16:35:50.498Z,15.33
2019-01-05T16:38:37.257Z,13.93
2019-01-05T16:41:25.369Z,15.63
2019-01-05T16:44:11.742Z,13.77
2019-01-05T16:47:02.807Z,14.10
2019-01-05T16:49:50.699Z,14.30
2019-01-05T16:52:33.823Z,15.33
2019-01-05T16:55:27.657Z,17.33
2019-01-05T16:58:18.447Z,16.33
2019-01-05T17:01:22.476Z,13.60
2019-01-05T17:04:03.563Z,12.93
2019-01-05T17:07:02.735Z,17.33
2019-01-05T17:09:52.991Z,15.50
2019-01-05T17:12:54.139Z,14.93
2019-01-05T17:15:40.079Z,19.43
2019-01-05T17:18:28.058Z,19.93
2019-01-05T17:21:25.187Z,18.83
2019-01-05T17:24:16.069Z,17.00
2019-01-05T17:27:02.653Z,25.47
2019-01-05T17:29:56.814Z,18.10
2019-01-05T17:32:46.295Z,17.17
2019-01-05T17:35:32.706Z,16.63
2019-01-05T17:38:20.179Z,20.17
2019-01-05T17:41:06.748Z,15.87
2019-01-05T17:43:48.134Z,16.53
2019-01-05T17:46:34.849Z,17.97
2019-01-05T17:49:27.710Z,15.40
2019-01-05T17:52:14.589Z,18.90
2019-01-05T17:55:02.144Z,14.43
2019-01-05T17:57:56.154Z,14.00
2019-01-05T18:00:44.389Z,21.27
2019-01-05T18:03:31.233Z,19.37
2019-01-05T18:06:23.382Z,15.40
2019-01-05T18:09:29.749Z,13.20
2019-01-05T18:12:20.476Z,15.63
2019-01-05T18:15:14.441Z,15.00
2019-01-05T18:18:00.804Z,15.60
2019-01-05T18:21:02.853Z,17.83
2019-01-05T18:23:49.645Z,16.17
2019-01-05T18:26:36.353Z,13.90
2019-01-05T18:29:33.787Z,15.30
2019-01-05T18:32:27.810Z,14.93
2019-01-05T18:35:13.476Z,18.07
2019-01-05T18:38:07.372Z,13.27
2019-01-05T18:41:07.686Z,12.47
2019-01-05T18:43:58.562Z,14.67
2019-01-05T18:46:45.369Z,11.93
2019-01-05T18:49:24.075Z,18.17
2019-01-05T18:52:11.063Z,13.40
2019-01-05T18:54:57.926Z,14.63
2019-01-05T18:57:55.188Z,19.43
2019-01-05T19:00:42.963Z,16.30
2019-01-05T19:03:34.578Z,14.23
2019-01-05T19:06:22.417Z,15.23
2019-01-05T19:09:08.885Z,16.87
2019-01-05T19:11:55.566Z,17.80
2019-01-05T19:14:43.698Z,15.77
2019-01-05T19:17:30.630Z,18.53
2019-01-05T19:20:21.270Z,16.43
2019-01-05T19:23:08.173Z,15.47
2019-01-05T19:26:14.701Z,17.60
2019-01-05T19:29:11.769Z,19.33
2019-01-05T19:31:58.338Z,24.00
2019-01-05T19:34:40.854Z,19.30
2019-01-05T19:37:37.520Z,15.77
2019-01-05T19:40:24.826Z,17.80
2019-01-05T19:43:12.065Z,19.13
2019-01-05T19:45:58.549Z,19.10
2019-01-05T19:48:45.093Z,18.80
2019-01-05T19:51:22.989Z,19.07
2019-01-05T19:54:25.898Z,19.90
2019-01-05T19:57:13.121Z,24.30
2019-01-05T20:00:04.074Z,16.80
2019-01-05T20:02:53.164Z,21.13
2019-01-05T20:05:40.146Z,22.70
2019-01-05T20:08:43.318Z,18.50
2019-01-05T20:11:43.300Z,21.67
2019-01-05T20:14:40.354Z,18.20
2019-01-05T20:17:23.676Z,22.33
2019-01-05T20:20:10.495Z,21.47
2019-01-05T20:22:57.018Z,16.50
2019-01-05T20:25:48.938Z,17.60
2019-01-05T20:28:34.077Z,22.33
2019-01-05T20:31:17.674Z,17.00
2019-01-05T20:34:05.671Z,17.20
2019-01-05T20:36:59.473Z,18.77
2019-01-05T20:39:43.183Z,20.03
2019-01-05T20:42:32.140Z,16.30
2019-01-05T20:45:23.069Z,16.73
2019-01-05T20:48:10.996Z,17.90
2019-01-05T20:50:57.807Z,18.33
2019-01-05T20:53:44.624Z,21.80
2019-01-05T20:56:43.258Z,17.43
2019-01-05T20:59:43.413Z,18.43
2019-01-05T21:02:29.821Z,24.33
2019-01-05T21:05:16.300Z,14.43
2019-01-05T21:08:15.514Z,16.87
2019-01-05T21:11:07.156Z,21.47
2019-01-05T21:13:58.226Z,15.13
2019-01-05T21:16:38.959Z,17.23
2019-01-05T21:19:25.430Z,23.07
2019-01-05T21:22:16.547Z,17.33
2019-01-05T21:25:22.703Z,18.13
2019-01-05T21:28:09.061Z,16.73
2019-01-05T21:30:55.583Z,17.10
2019-01-05T21:34:01.782Z,18.03
2019-01-05T21:36:49.931Z,18.47
2019-01-05T21:39:36.429Z,17.37
2019-01-05T21:42:42.588Z,14.13
2019-01-05T21:45:29.270Z,14.50
2019-01-05T21:48:15.779Z,15.13
2019-01-05T21:51:02.290Z,16.17
2019-01-05T21:53:49.049Z,16.17
2019-01-05T21:56:34.098Z,17.67
2019-01-05T21:59:25.305Z,14.27
2019-01-05T22:02:07.169Z,16.23
2019-01-05T22:04:53.989Z,19.70
2019-01-05T22:07:38.743Z,16.17
2019-01-05T22:10:36.398Z,13.50
2019-01-05T22:13:30.495Z,19.60
2019-01-05T22:16:12.686Z,18.20
2019-01-05T22:18:59.128Z,17.00
2019-01-05T22:21:45.809Z,14.67
2019-01-05T22:24:43.135Z,13.67
2019-01-05T22:27:40.094Z,18.13
2019-01-05T22:30:27.615Z,12.13
2019-01-05T22:33:12.075Z,12.37
2019-01-05T22:36:12.286Z,11.80
2019-01-05T22:39:03.356Z,12.07
2019-01-05T22:41:51.468Z,12.07
2019-01-05T22:44:48.451Z,14.70
2019-01-05T22:47:35.257Z,10.43
2019-01-05T22:50:22.601Z,15.83
2019-01-05T22:53:12.878Z,14.07
2019-01-05T22:56:09.543Z,14.37
2019-01-05T22:59:06.685Z,14.17
2019-01-05T23:01:57.426Z,14.33
2019-01-05T23:04:44.236Z,11.93
2019-01-05T23:07:41.626Z,12.13
2019-01-05T23:10:29.751Z,7.23
2019-01-05T23:13:29.698Z,14.50
2019-01-05T23:16:19.593Z,8.53
2019-01-05T23:19:16.390Z,10.53
2019-01-05T23:22:04.457Z,9.30
2019-01-05T23:25:00.994Z,9.77
2019-01-05T23:28:01.007Z,6.70
2019-01-05T23:31:00.046Z,9.60
2019-01-05T23:33:59.971Z,15.37
2019-01-05T23:37:03.375Z,9.70
2019-01-05T23:40:06.618Z,13.40
2019-01-05T23:42:53.402Z,10.10
2019-01-05T23:45:47.174Z,10.33
2019-01-05T23:48:35.098Z,11.87
2019-01-05T23:51:34.575Z,9.73
2019-01-05T23:54:21.298Z,15.37
2019-01-05T23:57:07.844Z,9.50
2019-01-05T23:59:54.407Z,7.47
